Time;durP1;ratioP1;P1;durP2;ratioP2;P2;SDS_P1;SDS_P2;PMS_P1;PMS_P2;Temp;Humidity;BMP_temperature;BMP_pressure;BME280_temperature;BME280_humidity;BME280_pressure;Samples;Min_cycle;Max_cycle;Signal;HPM_P1;HPM_P2
2022/10/31 00:00:21;;;;;;;7.22;3.78;;;11.30;99.90;;;;;;4902780;29;20534;-81
2022/10/31 00:02:47;;;;;;;11.02;3.80;;;11.30;99.90;;;;;;4929767;29;20051;-81
2022/10/31 00:05:13;;;;;;;12.57;6.38;;;11.30;99.90;;;;;;4899344;29;20059;-81
2022/10/31 00:07:38;;;;;;;10.60;5.47;;;11.20;99.90;;;;;;4902264;29;20054;-81
2022/10/31 00:10:04;;;;;;;6.22;3.95;;;11.20;99.90;;;;;;4928783;29;20067;-83
2022/10/31 00:12:30;;;;;;;12.35;3.63;;;11.20;99.90;;;;;;4900539;29;20064;-82
2022/10/31 00:14:55;;;;;;;6.20;3.25;;;11.20;99.90;;;;;;4912480;29;20582;-81
2022/10/31 00:17:21;;;;;;;4.22;3.30;;;11.10;99.90;;;;;;4911564;29;20047;-82
2022/10/31 00:19:47;;;;;;;9.10;4.75;;;11.10;99.90;;;;;;4898892;29;20040;-81
2022/10/31 00:22:12;;;;;;;8.45;5.03;;;11.10;99.90;;;;;;4897409;29;20039;-81
2022/10/31 00:24:38;;;;;;;9.35;5.03;;;11.00;99.90;;;;;;4926768;29;20094;-81
2022/10/31 00:27:03;;;;;;;9.23;6.47;;;11.00;99.90;;;;;;4917841;29;20043;-81
2022/10/31 00:29:29;;;;;;;9.60;4.47;;;10.90;99.90;;;;;;4903437;29;20043;-82
2022/10/31 00:31:54;;;;;;;6.50;5.13;;;11.00;99.90;;;;;;4913327;29;20103;-83
2022/10/31 00:34:20;;;;;;;11.82;5.47;;;10.90;99.90;;;;;;4913733;29;20066;-81
2022/10/31 00:36:45;;;;;;;9.00;4.75;;;10.80;99.90;;;;;;4926261;29;20099;-81
2022/10/31 00:39:11;;;;;;;4.88;4.13;;;10.80;99.90;;;;;;4910025;29;20122;-81
2022/10/31 00:41:36;;;;;;;126.65;12.68;;;10.80;99.90;;;;;;4912862;29;20130;-81
2022/10/31 00:44:02;;;;;;;96.70;11.52;;;10.80;99.90;;;;;;4896859;29;20046;-81
2022/10/31 00:46:28;;;;;;;15.18;9.02;;;10.80;99.90;;;;;;4927166;29;20426;-81
2022/10/31 00:48:53;;;;;;;10.13;7.28;;;10.80;99.90;;;;;;4899321;29;22028;-82
2022/10/31 00:51:19;;;;;;;9.75;7.28;;;10.70;99.90;;;;;;4911234;29;20043;-81
2022/10/31 00:53:44;;;;;;;9.80;7.13;;;10.90;99.90;;;;;;4930431;29;20039;-83
2022/10/31 00:56:10;;;;;;;11.43;5.43;;;10.80;99.90;;;;;;4913806;29;20039;-81
2022/10/31 00:58:35;;;;;;;6.47;4.00;;;10.70;99.90;;;;;;4949374;29;20031;-81
2022/10/31 01:01:02;;;;;;;5.78;3.67;;;10.80;99.90;;;;;;4916068;29;20043;-81
2022/10/31 01:03:30;;;;;;;5.88;4.15;;;10.70;99.90;;;;;;4918167;29;20550;-81
2022/10/31 01:05:57;;;;;;;8.25;5.50;;;10.70;99.90;;;;;;4944036;29;20131;-81
2022/10/31 01:08:23;;;;;;;39.28;10.57;;;10.70;99.90;;;;;;4911897;29;20051;-81
2022/10/31 01:10:59;;;;;;;59.30;11.68;;;10.70;99.90;;;;;;4951244;28;20039;-81
2022/10/31 01:13:24;;;;;;;16.55;9.07;;;10.70;99.90;;;;;;4924738;29;20043;-82
2022/10/31 01:15:57;;;;;;;10.55;7.05;;;10.70;99.90;;;;;;4904774;29;20044;-81
2022/10/31 01:18:24;;;;;;;10.25;6.32;;;10.70;99.90;;;;;;4906160;29;20036;-81
2022/10/31 01:21:05;;;;;;;11.55;7.50;;;10.70;99.90;;;;;;4895450;29;20131;-81
2022/10/31 01:23:31;;;;;;;28.60;10.38;;;10.70;99.90;;;;;;4916819;29;20590;-82
2022/10/31 01:26:05;;;;;;;13.68;9.27;;;10.70;99.90;;;;;;4935778;28;20182;-81
2022/10/31 01:28:31;;;;;;;8.95;7.88;;;10.70;99.90;;;;;;4914681;29;20462;-81
2022/10/31 01:31:01;;;;;;;7.82;6.93;;;10.70;99.90;;;;;;4902026;29;20126;-81
2022/10/31 01:33:26;;;;;;;7.97;6.82;;;10.70;99.90;;;;;;4934845;29;20516;-81
2022/10/31 01:35:52;;;;;;;11.68;7.63;;;10.70;99.90;;;;;;4913763;29;20051;-81
2022/10/31 01:38:18;;;;;;;15.52;10.35;;;10.70;99.90;;;;;;4916760;29;20036;-81
2022/10/31 01:40:43;;;;;;;8.98;7.28;;;10.70;99.90;;;;;;4944876;29;20099;-82
2022/10/31 01:43:15;;;;;;;10.57;7.70;;;10.70;99.90;;;;;;4920616;29;20039;-81
2022/10/31 01:45:43;;;;;;;10.20;6.45;;;10.80;99.90;;;;;;4915279;29;20521;-81
2022/10/31 01:48:15;;;;;;;12.77;8.00;;;10.70;99.90;;;;;;4917483;29;20052;-82
2022/10/31 01:50:44;;;;;;;9.00;7.88;;;10.70;99.90;;;;;;4913942;29;20107;-83
2022/10/31 01:53:11;;;;;;;15.23;9.13;;;10.70;99.90;;;;;;4943301;28;20047;-81
2022/10/31 01:55:41;;;;;;;8.77;7.72;;;10.60;99.90;;;;;;4927971;29;20506;-81
2022/10/31 01:58:11;;;;;;;8.82;6.72;;;10.60;99.90;;;;;;4914105;29;20104;-81
2022/10/31 02:00:37;;;;;;;16.70;9.85;;;10.60;99.90;;;;;;4941329;28;20481;-81
2022/10/31 02:03:09;;;;;;;11.38;9.02;;;10.60;99.90;;;;;;4895946;29;20039;-81
2022/10/31 02:05:44;;;;;;;20.17;11.77;;;10.40;99.90;;;;;;4930878;29;20043;-81
2022/10/31 02:08:37;;;;;;;14.68;9.63;;;10.50;99.90;;;;;;4931285;29;20499;-82
2022/10/31 02:11:03;;;;;;;19.95;12.63;;;10.50;99.90;;;;;;4942884;28;20108;-81
2022/10/31 02:13:29;;;;;;;19.17;13.60;;;10.60;99.90;;;;;;4901283;29;20043;-81
2022/10/31 02:15:58;;;;;;;9.70;7.82;;;10.70;99.90;;;;;;4904497;29;20043;-81
2022/10/31 02:18:28;;;;;;;8.48;6.07;;;10.70;99.90;;;;;;4916412;29;20075;-82
2022/10/31 02:21:22;;;;;;;8.32;3.70;;;10.70;99.90;;;;;;4899619;29;20053;-82
2022/10/31 02:24:14;;;;;;;12.45;7.05;;;10.60;99.90;;;;;;4919240;29;20487;-81
2022/10/31 02:27:03;;;;;;;12.10;9.70;;;10.60;99.90;;;;;;4916967;29;20047;-82
2022/10/31 02:29:56;;;;;;;9.60;5.72;;;10.50;99.90;;;;;;4915592;29;20050;-82
2022/10/31 02:32:30;;;;;;;8.48;3.53;;;10.50;99.90;;;;;;4917554;29;20047;-82
2022/10/31 02:35:29;;;;;;;3.20;2.30;;;10.50;99.90;;;;;;4944195;28;20046;-83
2022/10/31 02:37:55;;;;;;;10.45;4.25;;;10.40;99.90;;;;;;4916971;29;22247;-82
2022/10/31 02:40:29;;;;;;;11.45;5.50;;;10.40;99.90;;;;;;4904797;29;20126;-82
2022/10/31 02:43:00;;;;;;;11.00;8.27;;;10.30;99.90;;;;;;4929580;29;20507;-81
2022/10/31 02:45:29;;;;;;;19.10;10.27;;;10.40;99.90;;;;;;4902952;29;20039;-82
2022/10/31 02:48:04;;;;;;;11.35;7.05;;;10.30;99.90;;;;;;4916113;29;20055;-82
2022/10/31 02:50:34;;;;;;;10.68;7.13;;;10.40;99.90;;;;;;4919128;29;20048;-82
2022/10/31 02:53:01;;;;;;;9.32;6.00;;;10.30;99.90;;;;;;4916447;29;20075;-81
2022/10/31 02:55:27;;;;;;;9.10;5.07;;;10.30;99.90;;;;;;4897686;29;20119;-81
2022/10/31 02:58:00;;;;;;;6.97;5.15;;;10.30;99.90;;;;;;4944347;28;20108;-82
2022/10/31 03:00:26;;;;;;;11.18;4.60;;;10.30;99.90;;;;;;4939902;28;20421;-81
2022/10/31 03:03:05;;;;;;;14.45;6.68;;;10.70;99.90;;;;;;4919489;29;20183;-81
2022/10/31 03:05:45;;;;;;;7.38;4.55;;;10.20;99.90;;;;;;4913496;29;20044;-82
2022/10/31 03:08:45;;;;;;;5.10;3.15;;;10.20;99.90;;;;;;4942031;28;20051;-85
2022/10/31 03:11:11;;;;;;;6.55;3.30;;;10.10;99.90;;;;;;4933087;29;20067;-83
2022/10/31 03:13:46;;;;;;;14.40;4.93;;;10.10;99.90;;;;;;4916434;29;20212;-81
2022/10/31 03:16:17;;;;;;;8.25;6.78;;;10.10;99.90;;;;;;4915317;29;20043;-83
2022/10/31 03:19:03;;;;;;;11.68;8.00;;;10.00;99.90;;;;;;4930635;29;20052;-82
2022/10/31 03:22:02;;;;;;;15.85;6.60;;;10.00;99.90;;;;;;4929219;29;20047;-81
2022/10/31 03:24:38;;;;;;;17.27;7.88;;;10.00;99.90;;;;;;4949398;28;20046;-82
2022/10/31 03:27:07;;;;;;;44.47;12.15;;;9.90;99.90;;;;;;4900773;29;20075;-82
2022/10/31 03:29:36;;;;;;;44.03;10.43;;;9.90;99.90;;;;;;4901967;29;20126;-81
2022/10/31 03:32:10;;;;;;;139.77;12.60;;;9.90;99.90;;;;;;4902617;29;20063;-81
2022/10/31 03:34:37;;;;;;;16.80;9.63;;;9.90;99.90;;;;;;4915113;29;20059;-81
2022/10/31 03:37:07;;;;;;;17.70;11.95;;;9.90;99.90;;;;;;4898034;29;20126;-81
2022/10/31 03:39:34;;;;;;;13.02;10.32;;;9.90;99.90;;;;;;4917449;29;20040;-81
2022/10/31 03:42:13;;;;;;;13.15;9.15;;;9.80;99.90;;;;;;4913132;29;20083;-81
2022/10/31 03:44:42;;;;;;;17.90;9.57;;;9.80;99.90;;;;;;4943284;28;20040;-81
2022/10/31 03:47:08;;;;;;;14.50;8.27;;;9.80;99.90;;;;;;4929706;29;20252;-84
2022/10/31 03:49:35;;;;;;;13.15;8.27;;;9.80;99.90;;;;;;4901994;29;20039;-80
2022/10/31 03:52:24;;;;;;;10.80;7.95;;;9.80;99.90;;;;;;4898913;29;20036;-81
2022/10/31 03:55:12;;;;;;;13.50;9.07;;;9.80;99.90;;;;;;4918326;29;20043;-83
2022/10/31 03:57:44;;;;;;;11.10;8.77;;;9.70;99.90;;;;;;4915298;29;20083;-81
2022/10/31 04:00:12;;;;;;;15.57;9.57;;;9.70;99.90;;;;;;4913373;29;20499;-81
2022/10/31 04:02:42;;;;;;;11.98;9.15;;;9.70;99.90;;;;;;4898003;29;20047;-81
2022/10/31 04:05:10;;;;;;;11.23;8.68;;;9.70;99.90;;;;;;4912223;29;20063;-81
2022/10/31 04:07:41;;;;;;;12.40;8.45;;;9.70;99.90;;;;;;4916532;29;20036;-82
2022/10/31 04:10:12;;;;;;;10.93;8.75;;;9.60;99.90;;;;;;4914343;29;20071;-82
2022/10/31 04:12:39;;;;;;;16.92;11.57;;;9.60;99.90;;;;;;4918077;29;20537;-82
2022/10/31 04:15:07;;;;;;;13.13;10.15;;;9.70;99.90;;;;;;4914060;29;20125;-81
2022/10/31 04:17:35;;;;;;;14.00;9.43;;;9.80;99.90;;;;;;4932674;29;20048;-81
2022/10/31 04:20:02;;;;;;;18.00;8.63;;;9.70;99.90;;;;;;4915546;29;20133;-81
2022/10/31 04:22:27;;;;;;;9.60;7.95;;;9.70;99.90;;;;;;4914284;29;20085;-82
2022/10/31 04:24:53;;;;;;;14.75;9.98;;;9.70;99.90;;;;;;4917094;29;20080;-81
2022/10/31 04:27:18;;;;;;;9.75;8.52;;;9.80;99.90;;;;;;4929515;29;20040;-84
2022/10/31 04:29:44;;;;;;;13.25;8.25;;;9.80;99.90;;;;;;4915426;29;20918;-81
2022/10/31 04:32:10;;;;;;;9.52;8.45;;;9.80;99.90;;;;;;4926194;29;20097;-83
2022/10/31 04:34:35;;;;;;;10.00;8.82;;;9.70;99.90;;;;;;4934926;29;20514;-80
2022/10/31 04:37:04;;;;;;;10.18;7.97;;;9.70;99.90;;;;;;4896921;29;20050;-83
2022/10/31 04:39:29;;;;;;;8.43;7.18;;;9.70;99.90;;;;;;4936744;28;20383;-81
2022/10/31 04:41:55;;;;;;;15.80;9.45;;;9.60;99.90;;;;;;4939125;29;20119;-82
2022/10/31 04:44:20;;;;;;;11.05;8.80;;;9.60;99.90;;;;;;4911612;29;20055;-82
2022/10/31 04:46:46;;;;;;;10.23;8.23;;;9.60;99.90;;;;;;4914387;29;20062;-83
2022/10/31 04:49:12;;;;;;;11.13;7.63;;;9.60;99.90;;;;;;4914404;29;20212;-81
2022/10/31 04:51:37;;;;;;;10.50;8.50;;;9.50;99.90;;;;;;4912155;29;20442;-81
2022/10/31 04:54:03;;;;;;;8.00;7.20;;;9.50;99.90;;;;;;4890574;29;20051;-81
2022/10/31 04:56:29;;;;;;;10.30;7.13;;;9.50;99.90;;;;;;4939211;28;20043;-80
2022/10/31 04:59:00;;;;;;;10.60;7.35;;;9.50;99.90;;;;;;4926552;29;20072;-81
2022/10/31 05:01:27;;;;;;;7.78;5.10;;;9.50;99.90;;;;;;4896963;29;20060;-82
2022/10/31 05:03:53;;;;;;;6.50;4.70;;;9.40;99.90;;;;;;4896493;29;20102;-82
2022/10/31 05:06:18;;;;;;;15.18;7.60;;;9.40;99.90;;;;;;4896499;29;20188;-81
2022/10/31 05:08:44;;;;;;;13.50;7.15;;;9.40;99.90;;;;;;4903509;29;20067;-81
2022/10/31 05:11:09;;;;;;;15.05;7.50;;;9.40;99.90;;;;;;4923881;29;20040;-83
2022/10/31 05:13:35;;;;;;;14.25;7.90;;;9.40;99.90;;;;;;4911848;29;20099;-82
2022/10/31 05:16:00;;;;;;;16.45;9.05;;;9.40;99.90;;;;;;4933792;29;20106;-83
2022/10/31 05:18:26;;;;;;;15.15;10.63;;;9.30;99.90;;;;;;4900453;29;20402;-83
2022/10/31 05:20:52;;;;;;;14.63;11.02;;;9.40;99.90;;;;;;4909214;29;20046;-83
2022/10/31 05:23:17;;;;;;;19.52;11.82;;;9.40;99.90;;;;;;4910773;29;20042;-82
2022/10/31 05:25:43;;;;;;;16.85;11.23;;;9.60;99.90;;;;;;4899991;29;20509;-83
2022/10/31 05:28:09;;;;;;;15.15;10.43;;;9.60;99.90;;;;;;4919313;29;20122;-82
2022/10/31 05:30:35;;;;;;;11.90;9.73;;;9.60;99.90;;;;;;4913634;29;20104;-82
2022/10/31 05:33:02;;;;;;;22.00;11.57;;;9.60;99.90;;;;;;4929551;29;20050;-86
2022/10/31 05:35:32;;;;;;;15.30;10.05;;;9.60;99.90;;;;;;4913405;29;20063;-84
2022/10/31 05:37:58;;;;;;;12.65;7.80;;;9.50;99.90;;;;;;4898894;29;20410;-86
2022/10/31 05:40:25;;;;;;;43.28;10.43;;;9.50;99.90;;;;;;4901119;29;20036;-84
2022/10/31 05:42:52;;;;;;;16.23;9.60;;;9.50;99.90;;;;;;4898835;29;20031;-88
2022/10/31 05:45:18;;;;;;;11.95;10.00;;;9.40;99.90;;;;;;4901332;29;20865;-84
2022/10/31 05:47:55;;;;;;;13.48;10.43;;;9.40;99.90;;;;;;4895498;29;20451;-83
2022/10/31 05:50:22;;;;;;;12.93;8.52;;;9.50;99.90;;;;;;4914257;29;20186;-86
2022/10/31 05:53:17;;;;;;;10.25;8.30;;;9.40;99.90;;;;;;4899993;29;20087;-85
2022/10/31 05:55:47;;;;;;;15.88;8.70;;;9.40;99.90;;;;;;4909275;29;20067;-87
2022/10/31 05:58:17;;;;;;;13.15;9.20;;;9.40;99.90;;;;;;4899211;29;20502;-86
2022/10/31 06:00:43;;;;;;;14.77;9.13;;;9.40;99.90;;;;;;4907964;29;20130;-87
2022/10/31 06:03:11;;;;;;;60.72;10.52;;;9.40;99.90;;;;;;4929467;29;20642;-87
2022/10/31 06:05:37;;;;;;;249.73;15.02;;;9.30;99.90;;;;;;4896952;29;20044;-87
2022/10/31 06:08:06;;;;;;;105.68;11.95;;;9.30;99.90;;;;;;4929987;29;20050;-84
2022/10/31 06:10:31;;;;;;;79.00;10.15;;;9.30;99.90;;;;;;4930409;29;20044;-84
2022/10/31 06:12:57;;;;;;;275.50;15.30;;;9.30;99.90;;;;;;4927920;29;20824;-84
2022/10/31 06:15:23;;;;;;;241.35;15.90;;;9.20;99.90;;;;;;4901863;29;20075;-82
2022/10/31 06:18:01;;;;;;;31.92;7.03;;;9.20;99.90;;;;;;4896438;29;20047;-84
2022/10/31 06:20:26;;;;;;;27.73;10.07;;;9.10;99.90;;;;;;4943425;28;20047;-81
2022/10/31 06:22:52;;;;;;;14.35;7.90;;;9.10;99.90;;;;;;4888253;29;20036;-82
2022/10/31 06:25:17;;;;;;;9.40;6.63;;;9.10;99.90;;;;;;4911895;29;20107;-80
2022/10/31 06:27:43;;;;;;;30.95;7.22;;;9.00;99.90;;;;;;4913462;29;20043;-82
2022/10/31 06:30:09;;;;;;;29.15;6.78;;;9.00;99.90;;;;;;4926961;29;20039;-80
2022/10/31 06:32:35;;;;;;;9.05;6.40;;;9.00;99.90;;;;;;4929572;29;20115;-81
2022/10/31 06:35:00;;;;;;;9.50;7.20;;;9.00;99.90;;;;;;4909177;29;20534;-79
2022/10/31 06:37:50;;;;;;;12.00;7.07;;;8.90;99.90;;;;;;4915490;29;20557;-83
2022/10/31 06:41:07;;;;;;;19.33;5.93;;;8.90;99.90;;;;;;4914696;29;20039;-85
2022/10/31 06:43:42;;;;;;;8.57;5.13;;;8.90;99.90;;;;;;4886828;29;20063;-85
2022/10/31 06:46:07;;;;;;;214.18;15.73;;;8.90;99.90;;;;;;4912310;29;20036;-83
2022/10/31 06:48:37;;;;;;;224.40;18.70;;;8.90;99.90;;;;;;4896932;29;20062;-85
2022/10/31 06:51:12;;;;;;;106.10;12.93;;;9.00;99.90;;;;;;4893904;29;20458;-87
2022/10/31 06:57:40;;;;;;;119.78;9.43;;;9.00;99.90;;;;;;4905541;29;20390;-85
2022/10/31 07:08:01;;;;;;;51.33;10.77;;;8.90;99.90;;;;;;4885009;29;20153;-83
2022/10/31 07:10:33;;;;;;;26.60;5.25;;;8.80;99.90;;;;;;4907389;29;20055;-86
2022/10/31 07:13:06;;;;;;;46.80;9.25;;;8.80;99.90;;;;;;4928951;29;20554;-86
2022/10/31 07:15:40;;;;;;;10.75;7.15;;;8.70;99.90;;;;;;4916482;29;20126;-86
2022/10/31 07:18:47;;;;;;;14.82;6.78;;;8.70;99.90;;;;;;4891522;29;20075;-85
2022/10/31 07:36:42;;;;;;;58.15;13.30;;;9.00;99.90;;;;;;4774545;29;20086;-85
2022/10/31 07:39:28;;;;;;;16.27;11.85;;;9.30;99.90;;;;;;4788177;29;20470;-85
2022/10/31 07:42:36;;;;;;;20.33;12.13;;;9.20;99.90;;;;;;4871991;29;20053;-86
2022/10/31 07:45:04;;;;;;;18.35;12.68;;;9.40;99.90;;;;;;4877725;29;20049;-85
2022/10/31 07:47:30;;;;;;;42.63;15.80;;;9.40;99.90;;;;;;4903262;29;20047;-85
2022/10/31 07:49:56;;;;;;;19.17;12.68;;;9.50;99.90;;;;;;4900973;29;20031;-85
2022/10/31 07:52:25;;;;;;;13.68;10.80;;;9.50;99.90;;;;;;4902071;29;20036;-85
2022/10/31 07:54:50;;;;;;;32.22;15.70;;;9.60;99.90;;;;;;4931999;29;20048;-86
2022/10/31 07:57:16;;;;;;;20.13;11.60;;;9.60;99.90;;;;;;4929925;29;20483;-87
2022/10/31 07:59:42;;;;;;;27.15;14.95;;;9.70;99.90;;;;;;4930130;29;20048;-85
2022/10/31 08:02:08;;;;;;;20.92;13.57;;;9.70;99.90;;;;;;4947136;28;20039;-82
2022/10/31 08:04:33;;;;;;;14.65;11.93;;;9.80;99.90;;;;;;4917310;29;20087;-83
2022/10/31 08:06:59;;;;;;;12.77;11.57;;;9.90;99.90;;;;;;4943772;28;20044;-83
2022/10/31 08:09:25;;;;;;;14.18;12.75;;;9.90;99.90;;;;;;4917789;29;20122;-81
2022/10/31 08:11:50;;;;;;;16.38;13.10;;;10.10;99.90;;;;;;4947768;28;20046;-82
2022/10/31 08:14:16;;;;;;;15.63;13.43;;;10.10;99.90;;;;;;4911761;29;20050;-81
2022/10/31 08:16:41;;;;;;;16.02;13.88;;;10.20;99.90;;;;;;4895658;29;20087;-82
2022/10/31 08:19:10;;;;;;;14.45;13.00;;;10.30;99.90;;;;;;4909664;29;20112;-82
2022/10/31 08:21:35;;;;;;;15.07;13.57;;;10.30;99.90;;;;;;4897550;29;20035;-82
2022/10/31 08:24:01;;;;;;;14.93;12.57;;;10.50;99.90;;;;;;4888508;29;20083;-84
2022/10/31 08:26:27;;;;;;;15.68;13.93;;;10.60;99.90;;;;;;4895743;29;20051;-82
2022/10/31 08:28:54;;;;;;;17.30;14.63;;;10.70;99.90;;;;;;4915828;29;20043;-82
2022/10/31 08:31:21;;;;;;;14.82;13.13;;;10.80;99.90;;;;;;4916117;29;20558;-82
2022/10/31 08:33:46;;;;;;;15.55;13.95;;;10.90;99.90;;;;;;4898787;29;20179;-82
2022/10/31 08:36:12;;;;;;;14.50;12.00;;;11.00;99.90;;;;;;4900854;29;20126;-80
2022/10/31 08:38:37;;;;;;;14.52;13.13;;;11.10;99.90;;;;;;4909593;29;20055;-82
2022/10/31 08:41:03;;;;;;;19.35;15.70;;;11.10;99.90;;;;;;4913678;29;20039;-83
2022/10/31 08:43:28;;;;;;;19.88;15.07;;;11.30;99.90;;;;;;4897206;29;20042;-83
2022/10/31 08:45:54;;;;;;;17.50;15.80;;;11.50;99.90;;;;;;4905268;29;20056;-83
2022/10/31 08:48:21;;;;;;;18.10;16.17;;;11.60;99.90;;;;;;4929266;29;20044;-83
2022/10/31 08:50:47;;;;;;;18.88;16.08;;;11.60;99.90;;;;;;4900841;29;20051;-82
2022/10/31 08:53:18;;;;;;;19.13;16.08;;;11.70;99.90;;;;;;4895173;29;20040;-84
2022/10/31 08:55:45;;;;;;;18.88;16.55;;;11.70;99.90;;;;;;4886402;29;20435;-83
2022/10/31 08:58:13;;;;;;;23.05;16.50;;;11.90;99.90;;;;;;4911760;29;20040;-82
2022/10/31 09:00:39;;;;;;;18.75;16.70;;;11.80;99.90;;;;;;4896144;29;20482;-83
2022/10/31 09:03:08;;;;;;;18.92;16.35;;;11.90;99.90;;;;;;4929114;29;20063;-83
2022/10/31 09:05:34;;;;;;;19.48;15.80;;;11.90;99.90;;;;;;4897043;29;20047;-82
2022/10/31 09:08:02;;;;;;;19.65;17.55;;;11.90;99.90;;;;;;4915675;29;20042;-81
2022/10/31 09:10:29;;;;;;;19.50;17.50;;;12.00;99.90;;;;;;4929811;29;20040;-82
2022/10/31 09:12:59;;;;;;;19.05;17.05;;;12.00;99.90;;;;;;4902130;29;20062;-84
2022/10/31 09:15:26;;;;;;;18.45;16.25;;;12.20;99.90;;;;;;4910962;29;20043;-83
2022/10/31 09:17:52;;;;;;;22.83;15.60;;;12.00;99.90;;;;;;4896690;29;20052;-83
2022/10/31 09:20:19;;;;;;;23.48;18.55;;;12.00;99.90;;;;;;4928215;29;20739;-82
2022/10/31 09:22:44;;;;;;;18.92;16.95;;;12.10;99.90;;;;;;4899507;29;20036;-82
2022/10/31 09:25:10;;;;;;;18.13;16.02;;;12.00;99.90;;;;;;4934942;28;20499;-82
2022/10/31 09:27:36;;;;;;;20.65;16.25;;;12.00;99.90;;;;;;4950872;28;20058;-85
2022/10/31 09:30:02;;;;;;;17.27;15.55;;;12.00;99.90;;;;;;4935063;29;20039;-83
2022/10/31 09:32:27;;;;;;;19.92;17.40;;;12.00;99.90;;;;;;4902877;29;20039;-82
2022/10/31 09:34:53;;;;;;;21.20;18.25;;;12.00;99.90;;;;;;4904972;29;20138;-82
2022/10/31 09:37:18;;;;;;;22.27;17.92;;;12.10;99.90;;;;;;4904137;29;20046;-83
2022/10/31 09:39:44;;;;;;;23.70;17.30;;;12.00;99.90;;;;;;4917600;29;20048;-83
2022/10/31 09:42:38;;;;;;;22.38;17.88;;;12.10;99.90;;;;;;4932513;29;20040;-83
2022/10/31 09:45:25;;;;;;;19.58;17.52;;;12.10;99.90;;;;;;4927798;29;20074;-82
2022/10/31 09:48:21;;;;;;;23.85;17.98;;;12.00;99.90;;;;;;4930343;29;20035;-81
2022/10/31 09:51:00;;;;;;;21.10;18.77;;;12.10;99.90;;;;;;4917126;29;20090;-83
2022/10/31 09:53:48;;;;;;;21.98;19.08;;;12.20;99.90;;;;;;4898132;29;20042;-84
2022/10/31 09:56:17;;;;;;;20.48;18.35;;;12.30;99.90;;;;;;4901913;29;20047;-83
2022/10/31 09:58:53;;;;;;;22.05;18.85;;;12.30;99.90;;;;;;4914093;29;20062;-83
2022/10/31 10:01:39;;;;;;;23.45;19.27;;;12.40;99.90;;;;;;4949362;28;20118;-82
2022/10/31 10:04:35;;;;;;;20.30;17.83;;;12.50;99.90;;;;;;4904455;29;20040;-83
2022/10/31 10:07:05;;;;;;;;;;;12.50;99.90;;;;;;4912118;29;20865;-81
2022/10/31 10:09:31;;;;;;;22.17;18.88;;;12.60;99.90;;;;;;4932806;29;19928;-82
2022/10/31 10:12:25;;;;;;;20.40;16.13;;;12.60;99.90;;;;;;4921603;29;20158;-83
2022/10/31 10:14:56;;;;;;;21.50;18.45;;;12.70;99.90;;;;;;4911441;29;20106;-82
2022/10/31 10:17:36;;;;;;;24.73;19.05;;;12.80;99.90;;;;;;4913208;29;20115;-82
2022/10/31 10:20:12;;;;;;;20.88;17.40;;;12.80;99.90;;;;;;4934390;29;20147;-83
2022/10/31 10:22:57;;;;;;;21.60;18.15;;;12.80;99.90;;;;;;4915561;29;20036;-87
2022/10/31 10:25:35;;;;;;;24.80;19.40;;;12.90;99.90;;;;;;4912684;29;20087;-83
2022/10/31 10:28:37;;;;;;;21.27;17.20;;;12.90;99.90;;;;;;4918735;29;20045;-82
2022/10/31 10:31:26;;;;;;;22.77;17.05;;;13.00;99.90;;;;;;4900811;29;20043;-82
2022/10/31 10:34:19;;;;;;;19.05;17.13;;;13.10;99.90;;;;;;4903494;29;20031;-82
2022/10/31 10:36:47;;;;;;;22.98;17.17;;;13.10;99.90;;;;;;4900414;29;20040;-83
2022/10/31 10:39:21;;;;;;;19.55;17.40;;;13.30;99.90;;;;;;4945583;28;20039;-82
2022/10/31 10:50:33;;;;;;;19.30;15.10;;;13.70;99.90;;;;;;4931156;29;20086;-83
2022/10/31 10:53:31;;;;;;;16.38;14.55;;;13.80;99.90;;;;;;4884832;29;20043;-83
2022/10/31 10:56:46;;;;;;;16.92;14.00;;;14.00;99.90;;;;;;4917425;29;20043;-87
2022/10/31 10:59:30;;;;;;;14.93;11.90;;;14.10;99.90;;;;;;4826111;29;20577;-85
2022/10/31 11:06:04;;;;;;;14.68;11.23;;;14.30;99.90;;;;;;4873764;29;20081;-85
2022/10/31 11:08:37;;;;;;;23.70;13.10;;;14.60;99.90;;;;;;4911176;29;20095;-86
2022/10/31 11:11:40;;;;;;;13.70;11.50;;;14.80;99.90;;;;;;4914519;29;20058;-83
2022/10/31 11:14:14;;;;;;;19.67;12.48;;;14.80;99.90;;;;;;4849473;29;20056;-85
2022/10/31 11:16:44;;;;;;;14.82;11.02;;;14.80;99.90;;;;;;4915381;29;20126;-85
2022/10/31 11:19:26;;;;;;;18.65;11.82;;;14.80;99.90;;;;;;4932478;29;20036;-85
2022/10/31 11:21:53;;;;;;;12.55;9.88;;;14.90;99.90;;;;;;4933077;29;20036;-85
2022/10/31 11:24:21;;;;;;;14.52;10.25;;;14.90;99.90;;;;;;4898288;29;20043;-85
2022/10/31 11:27:24;;;;;;;13.10;9.95;;;15.00;99.90;;;;;;4915050;29;20047;-85
2022/10/31 11:30:09;;;;;;;14.02;9.48;;;15.10;99.90;;;;;;4874003;29;20087;-85
2022/10/31 11:33:16;;;;;;;10.00;7.35;;;15.00;99.90;;;;;;4914433;29;20043;-85
2022/10/31 11:35:43;;;;;;;12.05;7.55;;;15.20;99.90;;;;;;4930787;29;20052;-82
2022/10/31 11:38:21;;;;;;;11.25;8.57;;;15.10;99.90;;;;;;4933380;29;20051;-82
2022/10/31 11:41:17;;;;;;;8.90;8.00;;;15.10;99.90;;;;;;4932424;29;20044;-83
2022/10/31 11:44:01;;;;;;;11.85;8.73;;;15.10;99.90;;;;;;4896742;29;20522;-82
2022/10/31 11:46:35;;;;;;;10.27;8.93;;;15.10;99.90;;;;;;4913210;29;20179;-83
2022/10/31 11:49:02;;;;;;;13.48;8.75;;;15.10;99.90;;;;;;4901172;29;20051;-83
2022/10/31 11:51:32;;;;;;;13.32;9.70;;;15.20;99.90;;;;;;4898223;29;20130;-83
2022/10/31 11:54:02;;;;;;;12.50;8.82;;;15.20;99.90;;;;;;4894212;29;20051;-84
2022/10/31 11:56:37;;;;;;;11.63;8.82;;;15.20;99.90;;;;;;4946803;28;20075;-83
2022/10/31 11:59:04;;;;;;;;;;;15.20;99.90;;;;;;4928945;29;20051;-82
2022/10/31 12:01:32;;;;;;;9.75;8.73;;;15.20;99.90;;;;;;4946513;28;20021;-83
2022/10/31 12:04:06;;;;;;;13.70;9.10;;;15.20;99.90;;;;;;4896072;29;20044;-82
2022/10/31 12:06:38;;;;;;;13.73;9.55;;;15.20;99.90;;;;;;4919246;29;20040;-82
2022/10/31 12:09:23;;;;;;;13.38;9.07;;;15.20;99.90;;;;;;4896499;29;20134;-83
2022/10/31 12:12:23;;;;;;;10.38;9.25;;;15.30;99.90;;;;;;4929689;29;20047;-85
2022/10/31 12:15:26;;;;;;;10.38;7.47;;;15.20;99.90;;;;;;4927568;29;20177;-82
2022/10/31 12:18:09;;;;;;;12.45;8.13;;;15.20;99.90;;;;;;4941342;28;20055;-82
2022/10/31 12:20:57;;;;;;;12.77;7.63;;;15.20;99.90;;;;;;4927010;29;20043;-81
2022/10/31 12:23:44;;;;;;;8.40;6.88;;;15.20;99.90;;;;;;4934573;29;20035;-82
2022/10/31 12:26:25;;;;;;;12.98;7.45;;;15.30;99.90;;;;;;4897439;29;20631;-81
2022/10/31 12:29:20;;;;;;;10.75;7.50;;;15.30;99.90;;;;;;4904975;29;20067;-84
2022/10/31 12:31:54;;;;;;;12.40;6.80;;;15.30;99.90;;;;;;4906116;29;20119;-82
2022/10/31 12:34:47;;;;;;;10.07;6.88;;;15.30;99.90;;;;;;4941191;28;20036;-82
2022/10/31 12:37:27;;;;;;;12.43;6.63;;;15.30;99.90;;;;;;4895927;29;20043;-82
2022/10/31 12:40:13;;;;;;;11.50;7.05;;;15.40;99.90;;;;;;4911672;29;20115;-83
2022/10/31 12:42:41;;;;;;;10.07;6.78;;;15.40;99.90;;;;;;4936274;28;20040;-83
2022/10/31 12:45:35;;;;;;;10.73;7.85;;;15.50;99.90;;;;;;4898535;29;20044;-82
2022/10/31 12:48:03;;;;;;;11.98;7.13;;;15.50;99.90;;;;;;4923491;29;20040;-83
2022/10/31 12:50:34;;;;;;;11.68;6.72;;;15.50;99.90;;;;;;4901401;29;20043;-82
2022/10/31 12:53:31;;;;;;;12.82;7.13;;;15.50;99.90;;;;;;4923952;29;20060;-83
2022/10/31 12:56:17;;;;;;;;;;;15.40;99.90;;;;;;4916094;29;20647;-84
2022/10/31 12:58:59;;;;;;;9.95;7.45;;;15.30;99.90;;;;;;4904136;29;19977;-82
2022/10/31 13:01:36;;;;;;;17.73;7.22;;;15.40;99.90;;;;;;4940642;28;20494;-83
2022/10/31 13:04:24;;;;;;;15.90;7.22;;;15.40;99.90;;;;;;4896488;29;21021;-82
2022/10/31 13:07:03;;;;;;;11.02;6.38;;;15.40;99.90;;;;;;4914929;29;20052;-82
2022/10/31 13:09:44;;;;;;;17.42;7.70;;;15.50;99.90;;;;;;4916880;29;20040;-82
2022/10/31 13:12:15;;;;;;;11.55;5.78;;;15.50;99.90;;;;;;4912616;29;20106;-83
2022/10/31 13:14:47;;;;;;;14.57;6.32;;;15.60;99.90;;;;;;4912676;29;20047;-82
2022/10/31 13:17:33;;;;;;;10.50;5.97;;;15.70;99.90;;;;;;4911229;29;20083;-83
2022/10/31 13:20:21;;;;;;;14.63;6.22;;;15.70;99.90;;;;;;4899366;29;20036;-82
2022/10/31 13:22:52;;;;;;;11.25;6.22;;;15.70;99.90;;;;;;4926814;29;20048;-82
2022/10/31 13:25:25;;;;;;;11.65;6.20;;;15.80;99.90;;;;;;4911323;29;20043;-82
2022/10/31 13:28:05;;;;;;;8.65;6.13;;;15.80;99.90;;;;;;4888869;29;20035;-82
2022/10/31 13:30:38;;;;;;;12.32;5.22;;;15.80;99.90;;;;;;4913711;29;20047;-83
2022/10/31 13:33:16;;;;;;;9.55;5.15;;;15.80;99.90;;;;;;4901526;29;20043;-82
2022/10/31 13:36:09;;;;;;;10.90;5.47;;;15.80;99.90;;;;;;4899014;29;20048;-82
2022/10/31 13:38:56;;;;;;;10.80;5.40;;;15.70;99.90;;;;;;4930828;29;20077;-83
2022/10/31 13:41:55;;;;;;;9.70;5.80;;;15.70;99.90;;;;;;4947701;28;20040;-82
2022/10/31 13:44:26;;;;;;;9.15;4.30;;;15.70;99.90;;;;;;4911767;29;20059;-83
2022/10/31 13:46:54;;;;;;;11.00;5.80;;;15.70;99.90;;;;;;4928231;29;20040;-82